Ana Sayfa
METAR-TAF:

METAR-TAF

Havaalanları :

Stanly County Airport

Albemarle, Kuzey Carolina, Amerika Birleşik Devletleri

Enlem: 35-25-00N, Boylam: 080-09-03W, yükseklik: 186 m

Güncel hava durumu gözlemi

Rapor saat 21:00 UTC de 19 dakika önce yapıldı.
Rüzgar batı/güneybatıdan 11 kt ve 17 kt'a kadar ani rüzgarlar
Sıcaklık 34°C
Nem 41%
Basınç 1014 hPa
Görüş mesafesi: 16.1 km
6000 ft yükseklikte parçalı çok bulutlu

METAR: KVUJ 222100Z AUTO 24011G17KT 10SM BKN060 34/19 A2994 RMK AO2 LTG DSNT W AND NW T03350193

Saat: 17:19 (21:19 UTC)


TAF: eksik

4.000'den fazla havaalanı için hava durumu gözlemleri ve tahminleri (METAR ve TAF raporları).

Kullanılabilir istasyonlar harita üzerinde sarı ve kırmızı noktalarla gösterilir.

İstasyonun adını görmek için fareyi noktanın üzerinde gezdirin.

Sonrasında hava gözlem ve tahminlerini görmek için tıklayın.

Haritayı değiştirmek için: yaklaştırmak için siyah artı işaretli yeşil düğmeye ve uzaklaştırmak için de eksi işaretli düğmeye hızla tıklayın; bitişik haritalar için yeşil okları kullanın.


METAR-TAF: